Inaru Airstrip


Codes: AYIR/
Name: Inaru Airstrip
City: Inaru
Country: Papua New Guinea
Elevation: 178 ft.

Photos at Inaru Airstrip


   Photos courtesy of SpottingLog. You can add your own sightings and photos by signing up for a free trial today.



No photos found.

Weather at Inaru Airstrip


Time (UTC)DescriptionTempratureWindCloud coverageVisibilityPressureHumidity
19-Apr-2024 06:00Broken Clouds35°C2 mph, NE68%10000m1006hPa50%
19-Apr-2024 09:00Light Rain29°C2 mph, SE82%10000m1007hPa78%
19-Apr-2024 12:00Light Rain25°C2 mph, SE91%10000m1010hPa96%
19-Apr-2024 15:00Light Rain24°C2 mph, SE66%10000m1009hPa98%
19-Apr-2024 18:00Moderate Rain23°C2 mph, SE76%10000m1009hPa99%
19-Apr-2024 21:00Light Rain24°C0 mph, S100%10000m1011hPa98%
20-Apr-2024 00:00Light Rain28°C2 mph, NE100%10000m1012hPa83%
20-Apr-2024 03:00Light Rain33°C2 mph, N76%10000m1008hPa59%
20-Apr-2024 06:00Broken Clouds33°C4 mph, NE76%10000m1006hPa54%
20-Apr-2024 09:00Light Rain27°C2 mph, SE95%10000m1008hPa83%
20-Apr-2024 12:00Broken Clouds26°C2 mph, SE84%10000m1010hPa87%
20-Apr-2024 15:00Overcast Clouds25°C2 mph, SE100%10000m1010hPa93%
20-Apr-2024 18:00Overcast Clouds24°C2 mph, SE100%10000m1010hPa92%
20-Apr-2024 21:00Overcast Clouds24°C2 mph, S100%10000m1011hPa91%
21-Apr-2024 00:00Light Rain30°C2 mph, NE98%10000m1011hPa69%
21-Apr-2024 03:00Broken Clouds35°C2 mph, NE61%10000m1007hPa48%
21-Apr-2024 06:00Broken Clouds35°C4 mph, NE74%10000m1005hPa43%
21-Apr-2024 09:00Overcast Clouds28°C2 mph, SE94%10000m1007hPa75%
21-Apr-2024 12:00Light Rain25°C2 mph, SE82%10000m1010hPa96%
21-Apr-2024 15:00Light Rain24°C2 mph, SE55%10000m1010hPa99%
21-Apr-2024 18:00Light Rain23°C2 mph, S78%10000m1009hPa99%
21-Apr-2024 21:00Overcast Clouds24°C2 mph, SW85%10000m1011hPa97%
22-Apr-2024 00:00Broken Clouds30°C2 mph, NE67%10000m1011hPa70%
22-Apr-2024 03:00Scattered Clouds35°C2 mph, NE40%10000m1007hPa47%
22-Apr-2024 06:00Broken Clouds34°C2 mph, E53%10000m1005hPa45%
22-Apr-2024 09:00Overcast Clouds28°C2 mph, SE85%10000m1007hPa71%
22-Apr-2024 12:00Overcast Clouds25°C2 mph, E93%10000m1010hPa83%
22-Apr-2024 15:00Overcast Clouds24°C2 mph, SE88%10000m1009hPa90%
22-Apr-2024 18:00Overcast Clouds23°C2 mph, S95%10000m1009hPa91%
22-Apr-2024 21:00Broken Clouds24°C2 mph, S67%10000m1010hPa88%
23-Apr-2024 00:00Broken Clouds31°C2 mph, NE77%10000m1011hPa61%
23-Apr-2024 03:00Scattered Clouds35°C4 mph, NE41%10000m1007hPa46%
23-Apr-2024 06:00Scattered Clouds35°C2 mph, NE48%10000m1005hPa41%
23-Apr-2024 09:00Broken Clouds28°C2 mph, SE67%10000m1007hPa71%
23-Apr-2024 12:00Broken Clouds26°C2 mph, E80%10000m1010hPa81%
23-Apr-2024 15:00Overcast Clouds24°C0 mph, S98%10000m1010hPa90%
23-Apr-2024 18:00Overcast Clouds24°C0 mph, S99%10000m1009hPa90%
23-Apr-2024 21:00Overcast Clouds24°C2 mph, S91%10000m1011hPa89%
24-Apr-2024 00:00Broken Clouds31°C2 mph, N75%10000m1011hPa60%
24-Apr-2024 03:00Few Clouds35°C2 mph, NE22%10000m1006hPa44%